sensor_id;sensor_type;location;lat;lon;timestamp;temperature;humidity
32787;DHT22;19139;49.372;8.580;2023-04-03T00:01:04;19.60;85.90
32787;DHT22;19139;49.372;8.580;2023-04-03T00:03:31;19.60;85.90
32787;DHT22;19139;49.372;8.580;2023-04-03T00:05:58;19.60;85.80
32787;DHT22;19139;49.372;8.580;2023-04-03T00:08:25;19.60;85.80
32787;DHT22;19139;49.372;8.580;2023-04-03T00:10:51;19.60;85.80
32787;DHT22;19139;49.372;8.580;2023-04-03T00:13:18;19.60;85.80
32787;DHT22;19139;49.372;8.580;2023-04-03T00:15:45;19.60;85.80
32787;DHT22;19139;49.372;8.580;2023-04-03T00:18:12;19.60;85.80
32787;DHT22;19139;49.372;8.580;2023-04-03T00:20:38;19.60;85.80
32787;DHT22;19139;49.372;8.580;2023-04-03T00:23:05;19.60;85.80
32787;DHT22;19139;49.372;8.580;2023-04-03T00:25:32;19.60;85.80
32787;DHT22;19139;49.372;8.580;2023-04-03T00:27:59;19.60;85.80
32787;DHT22;19139;49.372;8.580;2023-04-03T00:30:26;19.60;85.80
32787;DHT22;19139;49.372;8.580;2023-04-03T00:32:52;19.60;85.80
32787;DHT22;19139;49.372;8.580;2023-04-03T00:35:21;19.60;85.80
32787;DHT22;19139;49.372;8.580;2023-04-03T00:37:50;19.60;85.80
32787;DHT22;19139;49.372;8.580;2023-04-03T00:40:17;19.60;85.80
32787;DHT22;19139;49.372;8.580;2023-04-03T00:42:45;19.60;85.70
32787;DHT22;19139;49.372;8.580;2023-04-03T00:45:34;19.60;85.70
32787;DHT22;19139;49.372;8.580;2023-04-03T00:48:04;19.50;85.60
32787;DHT22;19139;49.372;8.580;2023-04-03T00:50:34;19.60;85.70
32787;DHT22;19139;49.372;8.580;2023-04-03T00:53:03;19.50;85.60
32787;DHT22;19139;49.372;8.580;2023-04-03T00:55:31;19.60;85.70
32787;DHT22;19139;49.372;8.580;2023-04-03T00:58:00;19.50;85.60
32787;DHT22;19139;49.372;8.580;2023-04-03T01:00:27;19.50;85.60
32787;DHT22;19139;49.372;8.580;2023-04-03T01:02:54;19.50;85.60
32787;DHT22;19139;49.372;8.580;2023-04-03T01:05:21;19.50;85.50
32787;DHT22;19139;49.372;8.580;2023-04-03T01:07:49;19.60;85.60
32787;DHT22;19139;49.372;8.580;2023-04-03T01:10:18;19.50;85.50
32787;DHT22;19139;49.372;8.580;2023-04-03T01:12:49;19.50;85.50
32787;DHT22;19139;49.372;8.580;2023-04-03T01:15:20;19.50;85.50
32787;DHT22;19139;49.372;8.580;2023-04-03T01:17:51;19.50;85.40
32787;DHT22;19139;49.372;8.580;2023-04-03T01:25:43;19.60;85.50
32787;DHT22;19139;49.372;8.580;2023-04-03T01:28:32;19.50;85.40
32787;DHT22;19139;49.372;8.580;2023-04-03T01:31:46;19.50;85.40
32787;DHT22;19139;49.372;8.580;2023-04-03T01:34:03;19.50;85.40
32787;DHT22;19139;49.372;8.580;2023-04-03T01:36:31;19.50;85.40
32787;DHT22;19139;49.372;8.580;2023-04-03T01:38:59;19.50;85.40
32787;DHT22;19139;49.372;8.580;2023-04-03T01:41:27;19.50;85.40
32787;DHT22;19139;49.372;8.580;2023-04-03T01:43:54;19.50;85.40
32787;DHT22;19139;49.372;8.580;2023-04-03T01:46:21;19.50;85.40
32787;DHT22;19139;49.372;8.580;2023-04-03T01:48:48;19.50;85.40
32787;DHT22;19139;49.372;8.580;2023-04-03T01:51:14;19.50;85.30
32787;DHT22;19139;49.372;8.580;2023-04-03T01:53:41;19.50;85.30
32787;DHT22;19139;49.372;8.580;2023-04-03T01:56:08;19.50;85.30
32787;DHT22;19139;49.372;8.580;2023-04-03T01:58:35;19.50;85.30
32787;DHT22;19139;49.372;8.580;2023-04-03T02:01:01;19.50;85.20
32787;DHT22;19139;49.372;8.580;2023-04-03T02:03:28;19.50;85.30
32787;DHT22;19139;49.372;8.580;2023-04-03T02:05:55;19.50;85.20
32787;DHT22;19139;49.372;8.580;2023-04-03T02:08:21;19.50;85.30
32787;DHT22;19139;49.372;8.580;2023-04-03T02:10:49;19.50;86.00
32787;DHT22;19139;49.372;8.580;2023-04-03T02:13:16;19.50;85.20
32787;DHT22;19139;49.372;8.580;2023-04-03T02:15:43;19.50;85.20
32787;DHT22;19139;49.372;8.580;2023-04-03T02:18:10;19.50;85.20
32787;DHT22;19139;49.372;8.580;2023-04-03T02:20:36;19.50;85.20
32787;DHT22;19139;49.372;8.580;2023-04-03T02:23:03;19.50;85.20
32787;DHT22;19139;49.372;8.580;2023-04-03T02:25:31;19.50;85.20
32787;DHT22;19139;49.372;8.580;2023-04-03T02:27:58;19.40;85.10
32787;DHT22;19139;49.372;8.580;2023-04-03T02:30:25;19.50;85.20
32787;DHT22;19139;49.372;8.580;2023-04-03T02:32:53;19.40;85.10
32787;DHT22;19139;49.372;8.580;2023-04-03T02:35:19;19.40;85.10
32787;DHT22;19139;49.372;8.580;2023-04-03T02:37:47;19.40;85.10
32787;DHT22;19139;49.372;8.580;2023-04-03T02:40:13;19.40;85.10
32787;DHT22;19139;49.372;8.580;2023-04-03T02:42:40;19.40;85.10
32787;DHT22;19139;49.372;8.580;2023-04-03T02:45:07;19.40;85.10
32787;DHT22;19139;49.372;8.580;2023-04-03T02:47:34;19.40;85.00
32787;DHT22;19139;49.372;8.580;2023-04-03T02:50:00;19.40;85.00
32787;DHT22;19139;49.372;8.580;2023-04-03T02:52:27;19.40;85.00
32787;DHT22;19139;49.372;8.580;2023-04-03T02:54:53;19.40;85.00
32787;DHT22;19139;49.372;8.580;2023-04-03T02:57:20;19.40;85.00
32787;DHT22;19139;49.372;8.580;2023-04-03T02:59:47;19.40;85.00
32787;DHT22;19139;49.372;8.580;2023-04-03T03:02:13;19.40;85.00
32787;DHT22;19139;49.372;8.580;2023-04-03T03:04:40;19.40;85.00
32787;DHT22;19139;49.372;8.580;2023-04-03T03:07:07;19.40;85.00
32787;DHT22;19139;49.372;8.580;2023-04-03T03:09:33;19.40;85.00
32787;DHT22;19139;49.372;8.580;2023-04-03T03:12:00;19.40;84.90
32787;DHT22;19139;49.372;8.580;2023-04-03T03:14:27;19.40;84.90
32787;DHT22;19139;49.372;8.580;2023-04-03T03:16:53;19.40;85.00
32787;DHT22;19139;49.372;8.580;2023-04-03T03:19:20;19.40;84.80
32787;DHT22;19139;49.372;8.580;2023-04-03T03:21:47;19.40;84.80
32787;DHT22;19139;49.372;8.580;2023-04-03T03:24:13;19.40;84.80
32787;DHT22;19139;49.372;8.580;2023-04-03T03:26:42;19.40;84.80
32787;DHT22;19139;49.372;8.580;2023-04-03T03:29:09;19.40;84.80
32787;DHT22;19139;49.372;8.580;2023-04-03T03:31:36;19.40;84.80
32787;DHT22;19139;49.372;8.580;2023-04-03T03:34:02;19.40;84.80
32787;DHT22;19139;49.372;8.580;2023-04-03T03:36:29;19.40;84.80
32787;DHT22;19139;49.372;8.580;2023-04-03T03:38:55;19.40;84.80
32787;DHT22;19139;49.372;8.580;2023-04-03T03:41:22;19.40;84.80
32787;DHT22;19139;49.372;8.580;2023-04-03T03:43:49;19.40;84.70
32787;DHT22;19139;49.372;8.580;2023-04-03T03:46:16;19.40;84.70
32787;DHT22;19139;49.372;8.580;2023-04-03T03:48:42;19.40;84.70
32787;DHT22;19139;49.372;8.580;2023-04-03T03:51:09;19.40;85.50
32787;DHT22;19139;49.372;8.580;2023-04-03T03:53:35;19.40;84.70
32787;DHT22;19139;49.372;8.580;2023-04-03T03:56:04;19.30;84.60
32787;DHT22;19139;49.372;8.580;2023-04-03T03:58:31;19.40;84.70
32787;DHT22;19139;49.372;8.580;2023-04-03T04:01:03;19.40;84.70
32787;DHT22;19139;49.372;8.580;2023-04-03T04:03:29;19.30;84.80
32787;DHT22;19139;49.372;8.580;2023-04-03T04:05:57;19.40;84.60
32787;DHT22;19139;49.372;8.580;2023-04-03T04:08:23;19.30;84.60
32787;DHT22;19139;49.372;8.580;2023-04-03T04:10:50;19.30;84.60
32787;DHT22;19139;49.372;8.580;2023-04-03T04:13:17;19.30;84.60
32787;DHT22;19139;49.372;8.580;2023-04-03T04:15:44;19.30;84.60
32787;DHT22;19139;49.372;8.580;2023-04-03T04:18:11;19.30;84.50
32787;DHT22;19139;49.372;8.580;2023-04-03T04:20:37;19.30;84.50
32787;DHT22;19139;49.372;8.580;2023-04-03T04:23:04;19.30;84.60
32787;DHT22;19139;49.372;8.580;2023-04-03T04:25:30;19.30;84.50
32787;DHT22;19139;49.372;8.580;2023-04-03T04:27:57;19.30;84.50
32787;DHT22;19139;49.372;8.580;2023-04-03T04:30:24;19.30;84.50
32787;DHT22;19139;49.372;8.580;2023-04-03T04:32:50;19.30;84.50
32787;DHT22;19139;49.372;8.580;2023-04-03T04:35:17;19.30;84.50
32787;DHT22;19139;49.372;8.580;2023-04-03T04:37:44;19.30;84.40
32787;DHT22;19139;49.372;8.580;2023-04-03T04:40:11;19.30;84.50
32787;DHT22;19139;49.372;8.580;2023-04-03T04:42:37;19.30;84.40
32787;DHT22;19139;49.372;8.580;2023-04-03T04:45:04;19.30;84.40
32787;DHT22;19139;49.372;8.580;2023-04-03T04:47:31;19.30;84.50
32787;DHT22;19139;49.372;8.580;2023-04-03T04:49:58;19.30;84.40
32787;DHT22;19139;49.372;8.580;2023-04-03T04:52:24;19.30;84.40
32787;DHT22;19139;49.372;8.580;2023-04-03T04:54:51;19.30;84.40
32787;DHT22;19139;49.372;8.580;2023-04-03T04:57:17;19.30;84.40
32787;DHT22;19139;49.372;8.580;2023-04-03T04:59:44;19.20;84.30
32787;DHT22;19139;49.372;8.580;2023-04-03T05:02:11;19.30;84.40
32787;DHT22;19139;49.372;8.580;2023-04-03T05:04:38;19.20;84.30
32787;DHT22;19139;49.372;8.580;2023-04-03T05:07:04;19.30;84.40
32787;DHT22;19139;49.372;8.580;2023-04-03T05:09:31;19.20;84.20
32787;DHT22;19139;49.372;8.580;2023-04-03T05:11:58;19.20;84.30
32787;DHT22;19139;49.372;8.580;2023-04-03T05:14:24;19.30;84.30
32787;DHT22;19139;49.372;8.580;2023-04-03T05:16:51;19.20;84.30
32787;DHT22;19139;49.372;8.580;2023-04-03T05:19:21;19.30;84.30
32787;DHT22;19139;49.372;8.580;2023-04-03T05:21:48;19.20;84.20
32787;DHT22;19139;49.372;8.580;2023-04-03T05:24:15;19.20;84.20
32787;DHT22;19139;49.372;8.580;2023-04-03T05:26:43;19.20;84.20
32787;DHT22;19139;49.372;8.580;2023-04-03T05:29:10;19.20;84.20
32787;DHT22;19139;49.372;8.580;2023-04-03T05:31:37;19.20;84.20
32787;DHT22;19139;49.372;8.580;2023-04-03T05:34:03;19.20;84.20
32787;DHT22;19139;49.372;8.580;2023-04-03T05:36:30;19.20;84.20
32787;DHT22;19139;49.372;8.580;2023-04-03T05:38:57;19.20;84.20
32787;DHT22;19139;49.372;8.580;2023-04-03T05:41:24;19.20;84.20
32787;DHT22;19139;49.372;8.580;2023-04-03T05:43:51;19.20;84.20
32787;DHT22;19139;49.372;8.580;2023-04-03T05:46:19;19.20;84.20
32787;DHT22;19139;49.372;8.580;2023-04-03T05:48:47;19.20;84.20
32787;DHT22;19139;49.372;8.580;2023-04-03T05:51:16;19.20;84.20
32787;DHT22;19139;49.372;8.580;2023-04-03T05:53:43;19.20;84.20
32787;DHT22;19139;49.372;8.580;2023-04-03T05:56:10;19.20;84.10
32787;DHT22;19139;49.372;8.580;2023-04-03T05:58:37;19.20;84.20
32787;DHT22;19139;49.372;8.580;2023-04-03T06:01:04;19.20;84.10
32787;DHT22;19139;49.372;8.580;2023-04-03T06:03:31;19.20;84.10
32787;DHT22;19139;49.372;8.580;2023-04-03T06:05:58;19.20;84.10
32787;DHT22;19139;49.372;8.580;2023-04-03T06:08:25;19.20;84.20
32787;DHT22;19139;49.372;8.580;2023-04-03T06:10:52;19.20;84.10
32787;DHT22;19139;49.372;8.580;2023-04-03T06:13:19;19.20;84.10
32787;DHT22;19139;49.372;8.580;2023-04-03T06:15:45;19.20;84.00
32787;DHT22;19139;49.372;8.580;2023-04-03T06:18:13;19.20;84.10
32787;DHT22;19139;49.372;8.580;2023-04-03T06:20:39;19.20;84.00
32787;DHT22;19139;49.372;8.580;2023-04-03T06:23:06;19.20;84.00
32787;DHT22;19139;49.372;8.580;2023-04-03T06:25:34;19.20;84.00
32787;DHT22;19139;49.372;8.580;2023-04-03T06:28:01;19.20;84.00
32787;DHT22;19139;49.372;8.580;2023-04-03T06:30:27;19.20;84.00
32787;DHT22;19139;49.372;8.580;2023-04-03T06:32:54;19.20;84.00
32787;DHT22;19139;49.372;8.580;2023-04-03T06:35:22;19.20;84.10
32787;DHT22;19139;49.372;8.580;2023-04-03T06:37:50;19.20;84.00
32787;DHT22;19139;49.372;8.580;2023-04-03T06:40:23;19.20;84.00
32787;DHT22;19139;49.372;8.580;2023-04-03T06:42:50;19.20;84.00
32787;DHT22;19139;49.372;8.580;2023-04-03T06:45:17;19.20;84.00
32787;DHT22;19139;49.372;8.580;2023-04-03T06:47:43;19.20;84.00
32787;DHT22;19139;49.372;8.580;2023-04-03T06:50:12;19.20;84.00
32787;DHT22;19139;49.372;8.580;2023-04-03T06:52:40;19.20;84.00
32787;DHT22;19139;49.372;8.580;2023-04-03T06:55:08;19.20;84.00
32787;DHT22;19139;49.372;8.580;2023-04-03T06:57:35;18.70;78.50
32787;DHT22;19139;49.372;8.580;2023-04-03T07:00:04;17.70;76.00
32787;DHT22;19139;49.372;8.580;2023-04-03T07:02:31;17.20;76.10
32787;DHT22;19139;49.372;8.580;2023-04-03T07:04:58;16.80;76.00
32787;DHT22;19139;49.372;8.580;2023-04-03T07:07:25;16.60;75.90
32787;DHT22;19139;49.372;8.580;2023-04-03T07:09:52;16.50;75.30
32787;DHT22;19139;49.372;8.580;2023-04-03T07:12:18;16.10;75.60
32787;DHT22;19139;49.372;8.580;2023-04-03T07:14:45;16.00;76.80
32787;DHT22;19139;49.372;8.580;2023-04-03T07:17:12;16.60;78.30
32787;DHT22;19139;49.372;8.580;2023-04-03T07:19:38;17.00;80.00
32787;DHT22;19139;49.372;8.580;2023-04-03T07:22:05;17.40;80.40
32787;DHT22;19139;49.372;8.580;2023-04-03T07:24:32;17.70;80.90
32787;DHT22;19139;49.372;8.580;2023-04-03T07:26:59;17.90;80.80
32787;DHT22;19139;49.372;8.580;2023-04-03T07:29:27;18.00;81.00
32787;DHT22;19139;49.372;8.580;2023-04-03T07:31:53;18.10;81.10
32787;DHT22;19139;49.372;8.580;2023-04-03T07:34:21;18.20;81.30
32787;DHT22;19139;49.372;8.580;2023-04-03T07:36:48;18.30;81.50
32787;DHT22;19139;49.372;8.580;2023-04-03T07:39:14;18.40;81.70
32787;DHT22;19139;49.372;8.580;2023-04-03T07:41:41;18.40;81.90
32787;DHT22;19139;49.372;8.580;2023-04-03T07:44:08;18.50;82.00
32787;DHT22;19139;49.372;8.580;2023-04-03T07:46:36;18.50;81.80
32787;DHT22;19139;49.372;8.580;2023-04-03T07:49:03;18.50;82.30
32787;DHT22;19139;49.372;8.580;2023-04-03T07:51:30;18.60;82.60
32787;DHT22;19139;49.372;8.580;2023-04-03T07:53:57;18.60;82.50
32787;DHT22;19139;49.372;8.580;2023-04-03T07:56:24;18.60;82.80
32787;DHT22;19139;49.372;8.580;2023-04-03T07:58:51;18.70;83.00
32787;DHT22;19139;49.372;8.580;2023-04-03T08:01:18;18.70;83.00
32787;DHT22;19139;49.372;8.580;2023-04-03T08:03:45;18.60;80.70
32787;DHT22;19139;49.372;8.580;2023-04-03T08:06:11;18.60;80.10
32787;DHT22;19139;49.372;8.580;2023-04-03T08:08:43;18.50;79.50
32787;DHT22;19139;49.372;8.580;2023-04-03T08:11:10;18.50;79.20
32787;DHT22;19139;49.372;8.580;2023-04-03T08:13:37;18.50;79.00
32787;DHT22;19139;49.372;8.580;2023-04-03T08:16:09;18.50;79.20
32787;DHT22;19139;49.372;8.580;2023-04-03T08:18:36;18.50;79.20
32787;DHT22;19139;49.372;8.580;2023-04-03T08:21:07;18.50;78.80
32787;DHT22;19139;49.372;8.580;2023-04-03T08:23:34;18.50;78.60
32787;DHT22;19139;49.372;8.580;2023-04-03T08:26:27;18.50;79.60
32787;DHT22;19139;49.372;8.580;2023-04-03T08:28:54;18.50;79.80
32787;DHT22;19139;49.372;8.580;2023-04-03T08:31:20;18.50;78.20
32787;DHT22;19139;49.372;8.580;2023-04-03T08:33:47;18.50;77.60
32787;DHT22;19139;49.372;8.580;2023-04-03T08:36:25;18.50;77.70
32787;DHT22;19139;49.372;8.580;2023-04-03T08:38:53;18.50;77.10
32787;DHT22;19139;49.372;8.580;2023-04-03T08:41:43;18.50;78.00
32787;DHT22;19139;49.372;8.580;2023-04-03T08:44:22;18.50;77.50
32787;DHT22;19139;49.372;8.580;2023-04-03T08:49:56;18.50;78.60
32787;DHT22;19139;49.372;8.580;2023-04-03T08:52:39;18.50;76.30
32787;DHT22;19139;49.372;8.580;2023-04-03T08:57:54;18.50;76.30
32787;DHT22;19139;49.372;8.580;2023-04-03T09:00:39;18.50;76.30
32787;DHT22;19139;49.372;8.580;2023-04-03T09:03:12;18.50;76.10
32787;DHT22;19139;49.372;8.580;2023-04-03T09:05:47;18.50;75.70
32787;DHT22;19139;49.372;8.580;2023-04-03T09:08:30;18.50;76.70
32787;DHT22;19139;49.372;8.580;2023-04-03T09:19:35;18.50;75.10
32787;DHT22;19139;49.372;8.580;2023-04-03T09:22:17;18.50;75.00
32787;DHT22;19139;49.372;8.580;2023-04-03T09:24:57;18.50;75.10
32787;DHT22;19139;49.372;8.580;2023-04-03T09:27:25;18.50;76.20
32787;DHT22;19139;49.372;8.580;2023-04-03T09:29:57;18.50;75.90
32787;DHT22;19139;49.372;8.580;2023-04-03T09:32:33;18.50;76.90
32787;DHT22;19139;49.372;8.580;2023-04-03T09:35:04;18.60;77.00
32787;DHT22;19139;49.372;8.580;2023-04-03T09:37:44;18.60;77.10
32787;DHT22;19139;49.372;8.580;2023-04-03T09:40:32;18.70;77.40
32787;DHT22;19139;49.372;8.580;2023-04-03T09:45:51;18.80;77.90
32787;DHT22;19139;49.372;8.580;2023-04-03T09:48:20;18.80;78.20
32787;DHT22;19139;49.372;8.580;2023-04-03T09:53:38;18.80;78.60
32787;DHT22;19139;49.372;8.580;2023-04-03T09:58:46;18.90;79.00
32787;DHT22;19139;49.372;8.580;2023-04-03T10:01:31;18.90;79.10
32787;DHT22;19139;49.372;8.580;2023-04-03T10:04:14;18.90;79.20
32787;DHT22;19139;49.372;8.580;2023-04-03T10:06:54;19.00;79.40
32787;DHT22;19139;49.372;8.580;2023-04-03T10:12:03;19.00;79.80
32787;DHT22;19139;49.372;8.580;2023-04-03T10:14:38;19.00;79.90
32787;DHT22;19139;49.372;8.580;2023-04-03T10:28:35;19.10;80.30
32787;DHT22;19139;49.372;8.580;2023-04-03T10:31:21;19.10;80.50
32787;DHT22;19139;49.372;8.580;2023-04-03T10:39:53;19.10;80.90
32787;DHT22;19139;49.372;8.580;2023-04-03T10:42:39;19.10;81.10
32787;DHT22;19139;49.372;8.580;2023-04-03T10:53:55;19.20;81.40
32787;DHT22;19139;49.372;8.580;2023-04-03T10:56:30;19.20;81.50
32787;DHT22;19139;49.372;8.580;2023-04-03T10:59:13;19.20;81.50
32787;DHT22;19139;49.372;8.580;2023-04-03T11:01:46;19.20;81.50
32787;DHT22;19139;49.372;8.580;2023-04-03T11:04:15;19.20;81.40
32787;DHT22;19139;49.372;8.580;2023-04-03T11:06:48;19.20;81.30
32787;DHT22;19139;49.372;8.580;2023-04-03T11:11:47;19.20;81.10
32787;DHT22;19139;49.372;8.580;2023-04-03T11:14:28;19.20;81.10
32787;DHT22;19139;49.372;8.580;2023-04-03T11:19:42;19.20;81.00
32787;DHT22;19139;49.372;8.580;2023-04-03T11:24:42;19.20;81.10
32787;DHT22;19139;49.372;8.580;2023-04-03T11:27:18;19.30;81.30
32787;DHT22;19139;49.372;8.580;2023-04-03T11:29:49;19.30;81.50
32787;DHT22;19139;49.372;8.580;2023-04-03T11:32:26;19.30;81.60
32787;DHT22;19139;49.372;8.580;2023-04-03T11:35:01;19.30;81.70
32787;DHT22;19139;49.372;8.580;2023-04-03T11:37:40;19.30;81.80
32787;DHT22;19139;49.372;8.580;2023-04-03T11:40:24;19.30;81.90
32787;DHT22;19139;49.372;8.580;2023-04-03T11:43:02;19.30;82.00
32787;DHT22;19139;49.372;8.580;2023-04-03T11:46:04;19.30;82.10
32787;DHT22;19139;49.372;8.580;2023-04-03T11:53:48;19.30;82.40
32787;DHT22;19139;49.372;8.580;2023-04-03T11:59:21;19.40;82.80
32787;DHT22;19139;49.372;8.580;2023-04-03T12:01:56;19.40;82.90
32787;DHT22;19139;49.372;8.580;2023-04-03T12:04:26;19.40;83.00
32787;DHT22;19139;49.372;8.580;2023-04-03T12:07:00;19.50;83.20
32787;DHT22;19139;49.372;8.580;2023-04-03T12:12:34;19.50;83.20
32787;DHT22;19139;49.372;8.580;2023-04-03T12:15:42;19.50;82.90
32787;DHT22;19139;49.372;8.580;2023-04-03T12:21:16;19.50;83.10
32787;DHT22;19139;49.372;8.580;2023-04-03T12:24:04;19.50;83.40
32787;DHT22;19139;49.372;8.580;2023-04-03T12:30:26;19.50;83.10
32787;DHT22;19139;49.372;8.580;2023-04-03T12:33:09;19.50;83.10
32787;DHT22;19139;49.372;8.580;2023-04-03T12:43:54;19.50;83.20
32787;DHT22;19139;49.372;8.580;2023-04-03T12:46:51;19.50;83.10
32787;DHT22;19139;49.372;8.580;2023-04-03T12:52:05;19.50;82.70
32787;DHT22;19139;49.372;8.580;2023-04-03T12:54:37;19.60;82.70
32787;DHT22;19139;49.372;8.580;2023-04-03T12:59:42;19.50;82.40
32787;DHT22;19139;49.372;8.580;2023-04-03T13:02:23;19.50;82.40
32787;DHT22;19139;49.372;8.580;2023-04-03T13:04:58;19.60;82.50
32787;DHT22;19139;49.372;8.580;2023-04-03T13:08:13;19.60;83.00
32787;DHT22;19139;49.372;8.580;2023-04-03T13:15:46;19.60;84.30
32787;DHT22;19139;49.372;8.580;2023-04-03T13:18:47;19.70;84.70
32787;DHT22;19139;49.372;8.580;2023-04-03T13:21:44;19.60;85.00
32787;DHT22;19139;49.372;8.580;2023-04-03T13:32:24;19.60;85.00
32787;DHT22;19139;49.372;8.580;2023-04-03T13:34:52;19.70;85.30
32787;DHT22;19139;49.372;8.580;2023-04-03T13:37:32;19.70;85.10
32787;DHT22;19139;49.372;8.580;2023-04-03T13:42:34;19.70;85.20
32787;DHT22;19139;49.372;8.580;2023-04-03T13:45:32;19.70;85.10
32787;DHT22;19139;49.372;8.580;2023-04-03T13:48:18;19.70;85.00
32787;DHT22;19139;49.372;8.580;2023-04-03T13:53:45;19.80;84.50
32787;DHT22;19139;49.372;8.580;2023-04-03T13:56:35;19.80;84.10
32787;DHT22;19139;49.372;8.580;2023-04-03T14:04:19;19.80;82.90
32787;DHT22;19139;49.372;8.580;2023-04-03T14:06:51;19.70;82.50
32787;DHT22;19139;49.372;8.580;2023-04-03T14:09:20;19.70;81.50
32787;DHT22;19139;49.372;8.580;2023-04-03T14:11:48;19.70;81.70
32787;DHT22;19139;49.372;8.580;2023-04-03T14:14:23;19.70;81.60
32787;DHT22;19139;49.372;8.580;2023-04-03T14:16:54;19.70;81.30
32787;DHT22;19139;49.372;8.580;2023-04-03T14:19:27;19.60;81.20
32787;DHT22;19139;49.372;8.580;2023-04-03T14:21:55;19.60;81.00
32787;DHT22;19139;49.372;8.580;2023-04-03T14:24:22;19.70;80.90
32787;DHT22;19139;49.372;8.580;2023-04-03T14:26:54;19.70;80.80
32787;DHT22;19139;49.372;8.580;2023-04-03T14:29:22;19.70;80.60
32787;DHT22;19139;49.372;8.580;2023-04-03T14:31:53;19.70;80.40
32787;DHT22;19139;49.372;8.580;2023-04-03T14:34:25;19.70;80.30
32787;DHT22;19139;49.372;8.580;2023-04-03T14:36:56;19.70;80.20
32787;DHT22;19139;49.372;8.580;2023-04-03T14:39:28;19.70;80.00
32787;DHT22;19139;49.372;8.580;2023-04-03T14:41:59;19.70;79.90
32787;DHT22;19139;49.372;8.580;2023-04-03T14:44:31;19.70;79.90
32787;DHT22;19139;49.372;8.580;2023-04-03T14:46:57;19.70;79.70
32787;DHT22;19139;49.372;8.580;2023-04-03T14:49:27;19.70;79.50
32787;DHT22;19139;49.372;8.580;2023-04-03T14:51:56;19.70;79.50
32787;DHT22;19139;49.372;8.580;2023-04-03T14:54:28;19.80;80.10
32787;DHT22;19139;49.372;8.580;2023-04-03T14:57:00;19.80;80.00
32787;DHT22;19139;49.372;8.580;2023-04-03T14:59:29;19.80;79.20
32787;DHT22;19139;49.372;8.580;2023-04-03T15:01:56;19.80;79.20
32787;DHT22;19139;49.372;8.580;2023-04-03T15:04:23;19.80;79.10
32787;DHT22;19139;49.372;8.580;2023-04-03T15:06:51;19.70;79.00
32787;DHT22;19139;49.372;8.580;2023-04-03T15:09:26;19.70;78.90
32787;DHT22;19139;49.372;8.580;2023-04-03T15:11:54;19.70;78.90
32787;DHT22;19139;49.372;8.580;2023-04-03T15:14:22;19.70;78.70
32787;DHT22;19139;49.372;8.580;2023-04-03T15:16:53;19.70;78.70
32787;DHT22;19139;49.372;8.580;2023-04-03T15:19:20;19.70;78.60
32787;DHT22;19139;49.372;8.580;2023-04-03T15:21:46;19.70;78.30
32787;DHT22;19139;49.372;8.580;2023-04-03T15:24:13;19.70;78.20
32787;DHT22;19139;49.372;8.580;2023-04-03T15:26:39;19.80;78.20
32787;DHT22;19139;49.372;8.580;2023-04-03T15:29:06;19.80;78.10
32787;DHT22;19139;49.372;8.580;2023-04-03T15:31:33;19.80;78.30
32787;DHT22;19139;49.372;8.580;2023-04-03T15:34:00;19.90;78.20
32787;DHT22;19139;49.372;8.580;2023-04-03T15:36:26;19.90;78.30
32787;DHT22;19139;49.372;8.580;2023-04-03T15:39:00;19.80;78.20
32787;DHT22;19139;49.372;8.580;2023-04-03T15:41:27;19.80;78.30
32787;DHT22;19139;49.372;8.580;2023-04-03T15:43:58;19.80;78.40
32787;DHT22;19139;49.372;8.580;2023-04-03T15:46:29;19.80;78.50
32787;DHT22;19139;49.372;8.580;2023-04-03T15:48:56;19.80;79.20
32787;DHT22;19139;49.372;8.580;2023-04-03T15:51:23;19.80;78.40
32787;DHT22;19139;49.372;8.580;2023-04-03T15:53:54;19.80;78.30
32787;DHT22;19139;49.372;8.580;2023-04-03T15:56:21;19.80;78.30
32787;DHT22;19139;49.372;8.580;2023-04-03T15:58:47;19.80;78.30
32787;DHT22;19139;49.372;8.580;2023-04-03T16:01:19;19.80;78.30
32787;DHT22;19139;49.372;8.580;2023-04-03T16:03:50;19.80;78.30
32787;DHT22;19139;49.372;8.580;2023-04-03T16:06:18;19.80;78.30
32787;DHT22;19139;49.372;8.580;2023-04-03T16:08:50;19.80;78.10
32787;DHT22;19139;49.372;8.580;2023-04-03T16:11:22;19.80;78.20
32787;DHT22;19139;49.372;8.580;2023-04-03T16:13:54;19.80;78.10
32787;DHT22;19139;49.372;8.580;2023-04-03T16:16:22;19.80;78.00
32787;DHT22;19139;49.372;8.580;2023-04-03T16:18:49;19.80;78.00
32787;DHT22;19139;49.372;8.580;2023-04-03T16:21:21;19.80;77.90
32787;DHT22;19139;49.372;8.580;2023-04-03T16:23:48;19.80;77.80
32787;DHT22;19139;49.372;8.580;2023-04-03T16:26:20;19.80;77.80
32787;DHT22;19139;49.372;8.580;2023-04-03T16:28:53;19.80;77.90
32787;DHT22;19139;49.372;8.580;2023-04-03T16:31:20;19.80;77.70
32787;DHT22;19139;49.372;8.580;2023-04-03T16:33:53;19.80;77.70
32787;DHT22;19139;49.372;8.580;2023-04-03T16:36:20;19.80;77.60
32787;DHT22;19139;49.372;8.580;2023-04-03T16:38:51;19.80;77.70
32787;DHT22;19139;49.372;8.580;2023-04-03T16:41:23;19.80;77.60
32787;DHT22;19139;49.372;8.580;2023-04-03T16:43:50;19.80;77.50
32787;DHT22;19139;49.372;8.580;2023-04-03T16:46:17;19.80;78.30
32787;DHT22;19139;49.372;8.580;2023-04-03T16:48:43;19.80;77.50
32787;DHT22;19139;49.372;8.580;2023-04-03T16:51:12;19.80;77.50
32787;DHT22;19139;49.372;8.580;2023-04-03T16:53:38;19.80;77.60
32787;DHT22;19139;49.372;8.580;2023-04-03T16:56:05;19.80;77.50
32787;DHT22;19139;49.372;8.580;2023-04-03T16:58:36;19.80;77.50
32787;DHT22;19139;49.372;8.580;2023-04-03T17:01:15;19.80;77.60
32787;DHT22;19139;49.372;8.580;2023-04-03T17:03:47;19.80;77.70
32787;DHT22;19139;49.372;8.580;2023-04-03T17:06:19;19.80;77.70
32787;DHT22;19139;49.372;8.580;2023-04-03T17:08:51;19.80;77.70
32787;DHT22;19139;49.372;8.580;2023-04-03T17:11:23;19.80;77.80
32787;DHT22;19139;49.372;8.580;2023-04-03T17:13:54;19.80;77.70
32787;DHT22;19139;49.372;8.580;2023-04-03T17:16:22;19.80;77.70
32787;DHT22;19139;49.372;8.580;2023-04-03T17:18:50;19.80;77.60
32787;DHT22;19139;49.372;8.580;2023-04-03T17:21:18;19.70;77.50
32787;DHT22;19139;49.372;8.580;2023-04-03T17:23:51;19.70;77.50
32787;DHT22;19139;49.372;8.580;2023-04-03T17:26:20;19.70;77.50
32787;DHT22;19139;49.372;8.580;2023-04-03T17:28:52;19.70;77.50
32787;DHT22;19139;49.372;8.580;2023-04-03T17:31:24;19.70;77.50
32787;DHT22;19139;49.372;8.580;2023-04-03T17:33:50;19.70;77.50
32787;DHT22;19139;49.372;8.580;2023-04-03T17:36:17;19.70;77.50
32787;DHT22;19139;49.372;8.580;2023-04-03T17:38:52;19.70;77.30
32787;DHT22;19139;49.372;8.580;2023-04-03T17:41:18;19.70;77.50
32787;DHT22;19139;49.372;8.580;2023-04-03T17:43:45;19.60;77.40
32787;DHT22;19139;49.372;8.580;2023-04-03T17:46:12;19.60;77.40
32787;DHT22;19139;49.372;8.580;2023-04-03T17:48:44;19.60;77.00